Time;durP1;ratioP1;P1;durP2;ratioP2;P2;SDS_P1;SDS_P2;PMS_P1;PMS_P2;Temp;Humidity;BMP_temperature;BMP_pressure;BME280_temperature;BME280_humidity;BME280_pressure;Samples;Min_cycle;Max_cycle;Signal;HPM_P1;HPM_P2
2020/12/06 00:01:00;;;;;;;29.92;17.73;;;3.90;99.90;;;;;;5012189;28;20238;-89
2020/12/06 00:03:27;;;;;;;32.83;18.38;;;3.90;99.90;;;;;;5013283;28;20208;-87
2020/12/06 00:05:53;;;;;;;27.95;18.08;;;3.90;99.90;;;;;;5012966;28;20203;-88
2020/12/06 00:08:20;;;;;;;31.73;17.52;;;3.90;99.90;;;;;;5013038;28;20246;-88
2020/12/06 00:10:46;;;;;;;23.80;14.90;;;3.80;99.90;;;;;;4978449;28;20290;-87
2020/12/06 00:13:12;;;;;;;33.67;19.35;;;3.80;99.90;;;;;;5012879;28;20591;-88
2020/12/06 00:15:40;;;;;;;29.17;18.00;;;3.80;99.90;;;;;;5011987;28;20305;-87
2020/12/06 00:18:06;;;;;;;27.85;17.98;;;3.70;99.90;;;;;;5013542;28;20204;-87
2020/12/06 00:20:32;;;;;;;33.53;17.35;;;3.80;99.90;;;;;;5013199;28;20200;-88
2020/12/06 00:23:00;;;;;;;24.63;16.45;;;3.90;99.90;;;;;;5012819;28;20248;-88
2020/12/06 00:25:26;;;;;;;29.92;16.45;;;4.00;99.90;;;;;;5013261;28;20346;-89
2020/12/06 00:27:53;;;;;;;37.40;19.48;;;3.90;99.90;;;;;;5012778;28;20326;-88
2020/12/06 00:30:20;;;;;;;34.03;16.70;;;3.90;99.90;;;;;;5011621;28;20209;-89
2020/12/06 00:32:47;;;;;;;27.77;16.88;;;3.90;99.90;;;;;;5012828;28;20326;-87
2020/12/06 00:35:13;;;;;;;35.88;18.38;;;3.80;99.90;;;;;;5013756;28;20204;-88
2020/12/06 00:37:40;;;;;;;33.65;19.58;;;3.80;99.90;;;;;;5000046;28;20443;-87
2020/12/06 00:40:07;;;;;;;31.60;18.33;;;3.90;99.90;;;;;;4997325;28;20291;-88
2020/12/06 00:42:34;;;;;;;34.05;19.20;;;3.80;99.90;;;;;;4997244;28;20251;-87
2020/12/06 00:45:01;;;;;;;31.48;16.50;;;3.80;99.90;;;;;;4997156;28;20251;-88
2020/12/06 00:47:27;;;;;;;30.00;19.02;;;3.80;99.90;;;;;;4995925;28;20210;-87
2020/12/06 00:49:54;;;;;;;24.67;16.30;;;3.80;99.90;;;;;;4997107;28;20210;-87
2020/12/06 00:52:21;;;;;;;33.90;20.00;;;3.90;99.90;;;;;;4996926;28;20255;-87
2020/12/06 00:54:47;;;;;;;32.05;17.73;;;3.80;99.90;;;;;;4997143;28;20214;-88
2020/12/06 00:57:13;;;;;;;28.58;17.88;;;3.80;99.90;;;;;;4997258;28;20288;-87
2020/12/06 00:59:40;;;;;;;27.50;16.83;;;3.90;99.90;;;;;;4996616;28;20287;-88
2020/12/06 01:02:06;;;;;;;29.42;18.75;;;3.90;99.90;;;;;;4995684;28;20291;-87
2020/12/06 01:04:33;;;;;;;38.25;20.15;;;3.80;99.90;;;;;;4997009;28;20644;-87
2020/12/06 01:07:00;;;;;;;33.78;19.33;;;3.90;99.90;;;;;;5007856;28;20348;-87
2020/12/06 01:09:27;;;;;;;42.88;19.83;;;3.90;99.90;;;;;;5016532;28;20210;-88
2020/12/06 01:11:54;;;;;;;34.72;19.52;;;3.90;99.90;;;;;;5016045;28;20292;-87
2020/12/06 01:14:20;;;;;;;32.92;18.42;;;3.90;99.90;;;;;;5016040;28;20702;-87
2020/12/06 01:16:50;;;;;;;41.30;19.90;;;3.70;99.90;;;;;;5014995;28;20210;-86
2020/12/06 01:19:16;;;;;;;64.38;23.67;;;3.80;99.90;;;;;;5015857;28;20207;-87
2020/12/06 01:21:48;;;;;;;40.53;20.48;;;3.80;99.90;;;;;;5016049;28;20214;-88
2020/12/06 01:24:15;;;;;;;35.42;18.30;;;3.80;99.90;;;;;;5017697;28;20208;-87
2020/12/06 01:26:44;;;;;;;55.30;21.95;;;3.80;99.90;;;;;;5018066;28;20214;-87
2020/12/06 01:29:11;;;;;;;42.75;20.13;;;3.80;99.90;;;;;;5033506;28;20215;-86
2020/12/06 01:31:37;;;;;;;43.05;22.08;;;3.70;99.90;;;;;;5031733;28;20311;-87
2020/12/06 01:34:03;;;;;;;56.13;20.50;;;3.60;99.90;;;;;;5033200;28;20274;-87
2020/12/06 01:36:30;;;;;;;44.22;21.98;;;3.60;99.90;;;;;;5013934;28;20294;-87
2020/12/06 01:38:56;;;;;;;41.28;20.73;;;3.80;99.90;;;;;;5015145;28;20282;-87
2020/12/06 01:41:23;;;;;;;41.20;18.55;;;3.80;99.90;;;;;;5015853;28;20204;-87
2020/12/06 01:43:54;;;;;;;37.60;18.25;;;3.70;99.90;;;;;;5015767;28;20562;-87
2020/12/06 01:46:21;;;;;;;33.05;20.13;;;3.70;99.90;;;;;;5014119;28;20615;-86
2020/12/06 01:48:48;;;;;;;31.85;18.38;;;3.70;99.90;;;;;;5015061;28;20213;-86
2020/12/06 01:51:16;;;;;;;31.33;16.48;;;3.60;99.90;;;;;;5015540;28;20208;-87
2020/12/06 01:53:42;;;;;;;29.25;19.15;;;3.70;99.90;;;;;;5015473;28;20318;-87
2020/12/06 01:56:08;;;;;;;33.85;17.80;;;3.70;99.90;;;;;;5015532;28;20298;-87
2020/12/06 01:58:37;;;;;;;35.40;19.25;;;3.60;99.90;;;;;;5015460;28;20298;-87
2020/12/06 02:01:03;;;;;;;29.48;18.23;;;3.60;99.90;;;;;;5013690;28;20200;-87
2020/12/06 02:03:29;;;;;;;30.77;17.80;;;3.60;99.90;;;;;;5015122;28;20239;-86
2020/12/06 02:05:56;;;;;;;41.25;20.63;;;3.50;99.90;;;;;;5014480;28;20684;-89
2020/12/06 02:08:23;;;;;;;29.48;18.83;;;3.60;99.90;;;;;;5015192;28;20286;-87
2020/12/06 02:10:49;;;;;;;32.92;18.23;;;3.50;99.90;;;;;;5015192;28;20652;-87
2020/12/06 02:13:15;;;;;;;32.20;17.48;;;3.50;99.90;;;;;;5015007;28;20263;-86
2020/12/06 02:15:43;;;;;;;33.60;17.77;;;3.60;99.90;;;;;;5013326;28;20208;-87
2020/12/06 02:18:09;;;;;;;32.47;18.13;;;3.60;99.90;;;;;;5015071;28;20580;-86
2020/12/06 02:20:36;;;;;;;25.98;18.20;;;3.60;99.90;;;;;;5015150;28;20203;-88
2020/12/06 02:23:05;;;;;;;29.15;16.48;;;3.60;99.90;;;;;;5014914;28;20292;-87
2020/12/06 02:25:34;;;;;;;31.45;19.73;;;3.60;99.90;;;;;;5014843;28;20199;-85
2020/12/06 02:28:01;;;;;;;27.52;16.33;;;3.60;99.90;;;;;;5014623;28;20250;-86
2020/12/06 02:30:27;;;;;;;25.15;15.65;;;3.60;99.90;;;;;;5013403;28;20213;-86
2020/12/06 02:32:54;;;;;;;33.22;18.25;;;3.60;99.90;;;;;;5014655;28;20599;-88
2020/12/06 02:35:20;;;;;;;28.85;17.38;;;3.60;99.90;;;;;;5014619;28;20341;-88
2020/12/06 02:37:48;;;;;;;26.83;16.30;;;3.50;99.90;;;;;;5013400;28;20204;-89
2020/12/06 02:40:15;;;;;;;36.33;18.83;;;3.50;99.90;;;;;;5015532;28;20294;-89
2020/12/06 02:42:41;;;;;;;32.75;19.55;;;3.50;99.90;;;;;;5014729;28;20213;-88
2020/12/06 02:45:08;;;;;;;43.45;18.27;;;3.40;99.90;;;;;;5013776;28;20816;-88
2020/12/06 02:47:34;;;;;;;45.60;18.73;;;3.30;99.90;;;;;;5014351;28;20290;-89
2020/12/06 02:50:01;;;;;;;40.25;18.33;;;3.20;99.90;;;;;;5014431;28;20628;-88
2020/12/06 02:52:27;;;;;;;38.97;18.90;;;3.30;99.90;;;;;;5014372;28;20232;-87
2020/12/06 02:54:55;;;;;;;45.55;17.52;;;3.30;99.90;;;;;;5014324;28;20200;-88
2020/12/06 02:57:21;;;;;;;40.90;18.70;;;3.20;99.90;;;;;;5014730;28;20203;-87
2020/12/06 02:59:47;;;;;;;61.92;19.55;;;3.20;99.90;;;;;;5013823;28;20203;-87
2020/12/06 03:02:14;;;;;;;61.60;19.60;;;3.30;99.90;;;;;;5012920;28;20254;-87
2020/12/06 03:04:40;;;;;;;54.05;21.55;;;3.30;99.90;;;;;;5014139;28;20207;-88
2020/12/06 03:07:07;;;;;;;65.32;19.38;;;3.30;99.90;;;;;;5014173;28;20208;-86
2020/12/06 03:09:33;;;;;;;104.68;24.85;;;3.30;99.90;;;;;;5014063;28;20306;-88
2020/12/06 03:12:00;;;;;;;57.65;21.92;;;3.30;99.90;;;;;;5014375;28;20298;-86
2020/12/06 03:14:26;;;;;;;94.97;21.92;;;3.30;99.90;;;;;;5012818;28;20241;-87
2020/12/06 03:16:53;;;;;;;53.15;18.35;;;3.30;99.90;;;;;;5012983;28;20207;-86
2020/12/06 03:19:19;;;;;;;95.15;25.88;;;3.30;99.90;;;;;;5013907;28;20298;-88
2020/12/06 03:21:46;;;;;;;77.43;18.58;;;3.20;99.90;;;;;;5014014;28;20234;-86
2020/12/06 03:24:12;;;;;;;59.13;20.60;;;3.20;99.90;;;;;;5013856;28;20288;-86
2020/12/06 03:26:38;;;;;;;99.80;22.58;;;3.30;99.90;;;;;;5013718;28;20214;-87
2020/12/06 03:29:05;;;;;;;75.63;22.55;;;3.30;99.90;;;;;;5013625;28;20290;-87
2020/12/06 03:31:32;;;;;;;74.80;23.38;;;3.30;99.90;;;;;;5012289;28;20217;-87
2020/12/06 03:33:58;;;;;;;70.25;25.92;;;3.20;99.90;;;;;;5013644;28;20236;-87
2020/12/06 03:36:24;;;;;;;86.45;22.15;;;3.20;99.90;;;;;;5014571;28;20295;-87
2020/12/06 03:38:51;;;;;;;98.38;23.58;;;3.30;99.90;;;;;;5013852;28;20294;-86
2020/12/06 03:41:17;;;;;;;43.15;21.52;;;3.30;99.90;;;;;;5013427;28;20566;-86
2020/12/06 03:43:43;;;;;;;85.65;23.50;;;3.30;99.90;;;;;;5013678;28;20715;-87
2020/12/06 03:46:10;;;;;;;71.43;22.00;;;3.30;99.90;;;;;;5011960;28;20290;-87
2020/12/06 03:48:37;;;;;;;81.45;24.85;;;3.30;99.90;;;;;;5014039;28;20295;-87
2020/12/06 03:51:03;;;;;;;74.82;21.85;;;3.30;99.90;;;;;;5015171;28;20275;-86
2020/12/06 03:53:30;;;;;;;58.22;21.23;;;3.30;99.90;;;;;;5026326;28;20259;-88
2020/12/06 03:55:56;;;;;;;86.70;23.08;;;3.20;99.90;;;;;;5035378;28;20222;-91
2020/12/06 03:58:22;;;;;;;70.70;23.08;;;3.20;99.90;;;;;;5035281;28;20231;-87
2020/12/06 04:00:49;;;;;;;41.95;20.75;;;3.10;99.90;;;;;;5032607;28;20242;-86
2020/12/06 04:03:16;;;;;;;59.97;20.85;;;3.10;99.90;;;;;;5015397;28;20214;-89
2020/12/06 04:05:42;;;;;;;102.28;26.05;;;3.00;99.90;;;;;;5035383;28;20214;-86
2020/12/06 04:08:09;;;;;;;90.32;23.45;;;3.00;99.90;;;;;;5014660;28;20210;-87
2020/12/06 04:10:35;;;;;;;73.60;25.02;;;3.00;99.90;;;;;;5013759;28;20211;-86
2020/12/06 04:13:01;;;;;;;65.65;21.58;;;3.10;99.90;;;;;;5014427;28;20231;-87
2020/12/06 04:15:27;;;;;;;83.60;23.95;;;3.10;99.90;;;;;;5013064;28;20663;-86
2020/12/06 04:17:54;;;;;;;83.43;24.10;;;3.20;99.90;;;;;;5013859;28;20211;-87
2020/12/06 04:20:21;;;;;;;72.53;22.48;;;3.20;99.90;;;;;;5013662;28;20207;-86
2020/12/06 04:22:47;;;;;;;68.50;23.52;;;3.20;99.90;;;;;;5013497;28;20579;-87
2020/12/06 04:25:14;;;;;;;56.92;18.48;;;3.20;99.90;;;;;;5013028;28;20209;-86
2020/12/06 04:27:40;;;;;;;79.75;24.05;;;3.30;99.90;;;;;;5013023;28;20236;-86
2020/12/06 04:30:06;;;;;;;63.88;22.23;;;3.30;99.90;;;;;;5012690;28;20206;-87
2020/12/06 04:32:33;;;;;;;71.25;21.30;;;3.20;99.90;;;;;;5012423;28;20233;-86
2020/12/06 04:34:59;;;;;;;69.30;24.17;;;3.20;99.90;;;;;;5013000;28;20630;-85
2020/12/06 04:37:26;;;;;;;76.15;22.88;;;3.30;99.90;;;;;;5012874;28;20210;-87
2020/12/06 04:39:52;;;;;;;72.88;22.92;;;3.30;99.90;;;;;;5013213;28;20294;-87
2020/12/06 04:42:19;;;;;;;68.40;22.98;;;3.20;99.90;;;;;;5012924;28;20210;-87
2020/12/06 04:44:45;;;;;;;46.65;21.27;;;3.20;99.90;;;;;;5012795;28;20636;-86
2020/12/06 04:47:18;;;;;;;66.38;24.15;;;3.20;99.90;;;;;;5011860;28;20218;-86
2020/12/06 04:49:47;;;;;;;70.93;23.10;;;3.20;99.90;;;;;;5012941;28;20552;-86
2020/12/06 04:52:18;;;;;;;52.17;21.77;;;3.20;99.90;;;;;;5012858;28;20295;-87
2020/12/06 04:54:51;;;;;;;76.20;24.75;;;3.10;99.90;;;;;;5013088;28;20204;-87
2020/12/06 04:57:19;;;;;;;50.70;21.95;;;3.20;99.90;;;;;;5012969;28;20294;-87
2020/12/06 04:59:47;;;;;;;70.68;27.08;;;3.30;99.90;;;;;;5012434;28;20208;-88
2020/12/06 05:02:19;;;;;;;71.22;24.40;;;3.20;99.90;;;;;;5011791;28;20204;-88
2020/12/06 05:04:48;;;;;;;47.15;21.33;;;3.30;99.90;;;;;;5012728;28;20277;-88
2020/12/06 05:07:16;;;;;;;71.72;22.15;;;3.20;99.90;;;;;;5012680;28;20212;-86
2020/12/06 05:09:48;;;;;;;58.05;21.50;;;3.10;99.90;;;;;;5012854;28;20297;-86
2020/12/06 05:12:14;;;;;;;69.72;24.38;;;3.20;99.90;;;;;;5012716;28;20211;-87
2020/12/06 05:14:40;;;;;;;65.28;23.67;;;3.10;99.90;;;;;;5012477;28;20239;-88
2020/12/06 05:17:08;;;;;;;120.70;25.40;;;3.00;99.90;;;;;;5011371;28;20296;-87
2020/12/06 05:19:34;;;;;;;60.35;22.13;;;3.10;99.90;;;;;;5012531;28;20339;-87
2020/12/06 05:22:01;;;;;;;55.80;22.48;;;3.00;99.90;;;;;;5013087;28;20246;-89
2020/12/06 05:24:30;;;;;;;38.30;19.30;;;3.10;99.90;;;;;;5016045;28;20368;-86
2020/12/06 05:26:57;;;;;;;56.45;21.30;;;3.10;99.90;;;;;;5015838;28;20330;-88
2020/12/06 05:29:24;;;;;;;74.90;23.23;;;3.00;99.90;;;;;;5013827;28;20206;-86
2020/12/06 05:31:50;;;;;;;57.03;22.73;;;3.10;99.90;;;;;;5014533;28;20206;-87
2020/12/06 05:34:18;;;;;;;54.67;21.63;;;3.10;99.90;;;;;;5015768;28;20237;-87
2020/12/06 05:36:45;;;;;;;57.53;22.70;;;3.10;99.90;;;;;;5015765;28;20640;-87
2020/12/06 05:39:12;;;;;;;65.93;24.88;;;3.10;99.90;;;;;;5015651;28;20299;-88
2020/12/06 05:41:38;;;;;;;69.57;23.60;;;3.20;99.90;;;;;;5015704;28;20204;-87
2020/12/06 05:44:06;;;;;;;48.85;22.45;;;3.20;99.90;;;;;;5015539;28;20298;-87
2020/12/06 05:46:35;;;;;;;59.92;26.40;;;3.20;99.90;;;;;;5014074;28;20204;-87
2020/12/06 05:49:03;;;;;;;51.25;23.42;;;3.30;99.90;;;;;;5016365;28;20218;-86
2020/12/06 05:51:30;;;;;;;50.13;23.70;;;3.10;99.90;;;;;;5015529;28;20235;-87
2020/12/06 05:53:58;;;;;;;47.33;21.33;;;3.20;99.90;;;;;;5015207;28;20536;-87
2020/12/06 05:56:24;;;;;;;61.55;20.50;;;3.30;99.90;;;;;;5015373;28;20299;-86
2020/12/06 05:58:52;;;;;;;55.80;22.98;;;3.30;99.90;;;;;;5015388;28;20210;-87
2020/12/06 06:01:21;;;;;;;53.55;21.08;;;3.30;99.90;;;;;;5013758;28;20211;-88
2020/12/06 06:03:48;;;;;;;46.40;22.55;;;3.20;99.90;;;;;;5015194;28;20299;-89
2020/12/06 06:06:21;;;;;;;50.10;21.48;;;3.10;99.90;;;;;;5015089;28;20681;-87
2020/12/06 06:08:50;;;;;;;51.88;21.25;;;3.30;99.90;;;;;;5015110;28;20200;-88
2020/12/06 06:11:24;;;;;;;54.13;20.88;;;3.20;99.90;;;;;;5014983;28;20211;-87
2020/12/06 06:13:59;;;;;;;47.08;20.48;;;3.20;99.90;;;;;;5014860;28;20242;-87
2020/12/06 06:16:27;;;;;;;44.90;21.67;;;3.20;99.90;;;;;;5013449;28;20342;-87
2020/12/06 06:18:55;;;;;;;56.28;19.77;;;3.10;99.90;;;;;;5015022;28;20213;-92
2020/12/06 06:21:26;;;;;;;47.15;21.75;;;3.10;99.90;;;;;;5015080;28;20253;-88
2020/12/06 06:23:55;;;;;;;48.92;22.40;;;3.20;99.90;;;;;;5015873;28;20302;-89
2020/12/06 06:26:25;;;;;;;53.85;23.30;;;3.20;99.90;;;;;;5038918;28;20215;-89
2020/12/06 06:28:53;;;;;;;47.08;21.42;;;3.20;99.90;;;;;;5020194;28;20215;-87
2020/12/06 06:31:21;;;;;;;64.80;27.73;;;3.30;99.90;;;;;;5007066;28;20291;-89
2020/12/06 06:33:49;;;;;;;41.00;19.65;;;3.20;99.90;;;;;;4997643;28;20247;-89
2020/12/06 06:36:20;;;;;;;56.35;22.15;;;3.20;99.90;;;;;;4997013;28;20283;-89
2020/12/06 06:38:46;;;;;;;49.33;21.42;;;3.30;99.90;;;;;;4995028;28;20782;-89
2020/12/06 06:41:13;;;;;;;51.70;22.80;;;3.30;99.90;;;;;;4995065;28;20208;-88
2020/12/06 06:43:41;;;;;;;49.28;20.65;;;3.30;99.90;;;;;;4995341;28;20298;-87
2020/12/06 06:46:10;;;;;;;45.25;21.88;;;3.30;99.90;;;;;;4993869;28;20215;-89
2020/12/06 06:48:37;;;;;;;45.53;21.13;;;3.30;99.90;;;;;;4995049;28;20297;-89
2020/12/06 06:51:05;;;;;;;44.95;19.13;;;3.30;99.90;;;;;;4994817;28;20629;-87
2020/12/06 06:53:31;;;;;;;51.53;21.80;;;3.30;99.90;;;;;;4994766;28;20277;-88
2020/12/06 06:56:00;;;;;;;58.83;21.42;;;3.30;99.90;;;;;;4994740;28;20208;-88
2020/12/06 06:58:30;;;;;;;45.72;20.50;;;3.40;99.90;;;;;;4994578;28;20212;-87
2020/12/06 07:01:16;;;;;;;50.42;21.15;;;3.40;99.90;;;;;;4993178;28;20299;-88
2020/12/06 07:03:43;;;;;;;44.50;22.77;;;3.40;99.90;;;;;;4994452;28;20581;-87
2020/12/06 07:06:11;;;;;;;38.80;18.42;;;3.30;99.90;;;;;;4994668;28;20204;-86
2020/12/06 07:08:38;;;;;;;41.05;18.95;;;3.30;99.90;;;;;;4994496;28;20214;-86
2020/12/06 07:11:06;;;;;;;44.92;21.13;;;3.40;99.90;;;;;;4994306;28;20298;-88
2020/12/06 07:13:32;;;;;;;47.35;20.85;;;3.30;99.90;;;;;;4994391;28;20260;-88
2020/12/06 07:15:59;;;;;;;43.47;18.40;;;3.40;99.90;;;;;;4992878;28;20200;-88
2020/12/06 07:18:25;;;;;;;42.78;18.63;;;3.50;99.90;;;;;;4994149;28;20204;-87
2020/12/06 07:20:51;;;;;;;49.42;22.25;;;3.40;99.90;;;;;;4994266;28;20664;-87
2020/12/06 07:23:19;;;;;;;41.92;21.92;;;3.40;99.90;;;;;;4994098;28;20621;-88
2020/12/06 07:25:46;;;;;;;41.25;20.95;;;3.40;99.90;;;;;;4994200;28;20292;-87
2020/12/06 07:28:13;;;;;;;54.58;23.10;;;3.50;99.90;;;;;;5008655;28;20232;-88
2020/12/06 07:30:43;;;;;;;46.17;20.63;;;3.50;99.90;;;;;;5012138;28;20294;-87
2020/12/06 07:33:10;;;;;;;46.95;21.27;;;3.40;99.90;;;;;;5013514;28;20262;-86
2020/12/06 07:35:36;;;;;;;52.33;23.90;;;3.40;99.90;;;;;;5013549;28;20204;-87
2020/12/06 07:38:03;;;;;;;45.90;20.58;;;3.50;99.90;;;;;;5013556;28;20211;-87
2020/12/06 07:40:30;;;;;;;42.63;20.83;;;3.60;99.90;;;;;;5013504;28;20211;-88
2020/12/06 07:42:57;;;;;;;46.67;18.90;;;3.60;99.90;;;;;;5013579;28;20667;-88
2020/12/06 07:45:26;;;;;;;43.80;20.50;;;3.50;99.90;;;;;;5011105;28;20211;-87
2020/12/06 07:47:52;;;;;;;43.80;21.52;;;3.50;99.90;;;;;;5013670;28;20203;-88
2020/12/06 07:50:19;;;;;;;50.30;19.63;;;3.50;99.90;;;;;;5013813;28;20210;-87
2020/12/06 07:52:45;;;;;;;45.50;19.40;;;3.60;99.90;;;;;;5013590;28;20654;-87
2020/12/06 07:55:12;;;;;;;40.42;17.80;;;3.50;99.90;;;;;;5013632;28;20290;-87
2020/12/06 07:57:47;;;;;;;42.15;20.35;;;3.40;99.90;;;;;;5013611;28;20206;-87
2020/12/06 08:00:15;;;;;;;50.35;21.05;;;3.50;99.90;;;;;;5007088;28;20306;-88
2020/12/06 08:02:46;;;;;;;48.40;22.10;;;3.50;99.90;;;;;;5013613;28;20298;-89
2020/12/06 08:05:18;;;;;;;50.05;20.63;;;3.50;99.90;;;;;;5013720;28;20269;-89
2020/12/06 08:07:46;;;;;;;46.80;21.85;;;3.50;99.90;;;;;;5009757;28;20246;-84
2020/12/06 08:10:15;;;;;;;49.85;18.35;;;3.60;99.90;;;;;;4993760;28;20287;-86
2020/12/06 08:12:45;;;;;;;45.80;15.38;;;3.60;99.90;;;;;;4997158;28;20219;-84
2020/12/06 08:15:12;;;;;;;51.72;20.38;;;4.00;99.90;;;;;;5012165;28;20245;-84
2020/12/06 08:17:43;;;;;;;56.47;20.98;;;4.50;99.90;;;;;;5013136;28;20596;-87
2020/12/06 08:20:11;;;;;;;55.28;21.08;;;4.70;99.90;;;;;;5016122;28;20207;-90
2020/12/06 08:22:53;;;;;;;45.13;21.85;;;4.30;99.90;;;;;;5013946;28;20234;-92
2020/12/06 08:25:22;;;;;;;50.65;22.00;;;4.10;99.90;;;;;;5012264;28;20254;-89
2020/12/06 08:27:50;;;;;;;59.28;24.30;;;4.00;99.90;;;;;;5013984;28;20267;-91
2020/12/06 08:30:17;;;;;;;51.97;24.15;;;3.90;99.90;;;;;;5012287;28;20265;-88
2020/12/06 08:32:54;;;;;;;66.22;25.27;;;3.90;99.90;;;;;;5013359;28;20314;-88
2020/12/06 08:35:21;;;;;;;60.13;20.63;;;3.80;99.90;;;;;;5013292;28;20647;-87
2020/12/06 08:37:47;;;;;;;43.70;20.10;;;3.90;99.90;;;;;;5013109;28;20242;-86
2020/12/06 08:40:14;;;;;;;48.05;24.08;;;3.80;99.90;;;;;;5013191;28;20210;-87
2020/12/06 08:42:40;;;;;;;48.20;20.38;;;3.80;99.90;;;;;;5013212;28;20747;-87
2020/12/06 08:45:07;;;;;;;50.35;18.95;;;3.90;99.90;;;;;;5012982;28;20208;-89
2020/12/06 08:47:41;;;;;;;49.90;21.52;;;3.90;99.90;;;;;;5013216;28;20300;-87
2020/12/06 08:50:10;;;;;;;52.22;21.77;;;3.90;99.90;;;;;;5013192;28;20573;-89
2020/12/06 08:52:37;;;;;;;53.92;21.42;;;3.80;99.90;;;;;;5013411;28;20214;-88
2020/12/06 08:55:32;;;;;;;57.80;22.00;;;3.90;99.90;;;;;;5014855;28;20318;-88
2020/12/06 08:57:59;;;;;;;44.67;21.60;;;3.90;99.90;;;;;;5018962;28;20210;-87
2020/12/06 09:00:26;;;;;;;51.78;21.70;;;4.00;99.90;;;;;;5015771;28;20214;-89
2020/12/06 09:02:55;;;;;;;53.20;21.95;;;4.00;99.90;;;;;;5017235;28;20299;-88
2020/12/06 09:05:22;;;;;;;60.30;21.63;;;4.10;99.90;;;;;;5016924;28;20207;-89
2020/12/06 09:07:48;;;;;;;50.60;19.90;;;4.00;99.90;;;;;;5018974;28;20299;-90
2020/12/06 09:10:15;;;;;;;42.85;20.85;;;4.10;99.90;;;;;;5022793;28;20288;-87
2020/12/06 09:12:41;;;;;;;70.13;23.00;;;4.10;99.90;;;;;;5025363;28;20306;-86
2020/12/06 09:15:08;;;;;;;46.13;19.67;;;4.10;99.90;;;;;;5037161;28;20262;-86
2020/12/06 09:17:35;;;;;;;41.65;20.27;;;4.00;99.90;;;;;;5029501;28;20207;-87
2020/12/06 09:20:02;;;;;;;50.17;18.80;;;4.10;99.90;;;;;;5025106;28;20267;-86
2020/12/06 09:22:29;;;;;;;56.58;22.38;;;4.20;99.90;;;;;;5018147;28;20255;-87
2020/12/06 09:24:55;;;;;;;52.00;21.63;;;4.30;99.90;;;;;;5017091;28;20282;-87
2020/12/06 09:27:22;;;;;;;48.78;21.85;;;4.30;99.90;;;;;;5016579;28;20239;-87
2020/12/06 09:29:48;;;;;;;41.63;19.77;;;4.30;99.90;;;;;;5016429;28;20286;-85
2020/12/06 09:32:14;;;;;;;54.00;20.20;;;4.30;99.90;;;;;;5015445;28;20290;-87
2020/12/06 09:34:42;;;;;;;41.88;19.02;;;4.30;99.90;;;;;;5016041;28;20231;-86
2020/12/06 09:37:08;;;;;;;46.88;22.60;;;4.30;99.90;;;;;;5016514;28;20211;-88
2020/12/06 09:39:34;;;;;;;46.65;20.05;;;4.30;99.90;;;;;;5014855;28;20211;-87
2020/12/06 09:42:01;;;;;;;48.65;20.05;;;4.30;99.90;;;;;;5016170;28;20683;-87
2020/12/06 09:44:27;;;;;;;45.25;19.63;;;4.20;99.90;;;;;;5016052;28;20211;-86
2020/12/06 09:46:53;;;;;;;40.83;19.15;;;4.30;99.90;;;;;;5015250;28;20207;-88
2020/12/06 09:49:20;;;;;;;30.30;19.95;;;4.30;99.90;;;;;;5016428;28;20231;-88
2020/12/06 09:51:47;;;;;;;42.35;19.38;;;4.30;99.90;;;;;;5016739;28;20200;-89
2020/12/06 09:54:13;;;;;;;39.53;16.58;;;4.40;99.90;;;;;;5015847;28;20322;-90
2020/12/06 09:56:40;;;;;;;47.22;20.20;;;4.60;99.90;;;;;;5016857;28;20204;-87
2020/12/06 09:59:06;;;;;;;47.80;19.73;;;4.80;99.90;;;;;;5016945;28;20325;-91
2020/12/06 10:01:32;;;;;;;42.58;18.50;;;4.80;99.90;;;;;;5015693;28;20203;-88
2020/12/06 10:03:59;;;;;;;53.85;21.23;;;4.60;99.90;;;;;;5017323;28;20231;-91
2020/12/06 10:06:26;;;;;;;54.55;21.08;;;4.70;99.90;;;;;;5018655;28;20683;-90
2020/12/06 10:08:56;;;;;;;128.85;29.55;;;4.70;99.90;;;;;;5019852;28;20270;-93
2020/12/06 10:11:23;;;;;;;48.63;19.15;;;4.90;99.90;;;;;;5020417;28;20290;-88
2020/12/06 10:13:49;;;;;;;42.05;17.58;;;4.90;99.90;;;;;;5022715;28;20235;-87
2020/12/06 10:16:16;;;;;;;42.78;18.73;;;4.70;99.90;;;;;;5019128;28;20294;-87
2020/12/06 10:18:43;;;;;;;116.38;33.58;;;4.60;99.90;;;;;;5018191;28;20298;-87
2020/12/06 10:21:11;;;;;;;40.38;20.08;;;4.70;99.90;;;;;;5017588;28;20203;-89
2020/12/06 10:23:38;;;;;;;141.80;31.13;;;4.70;99.90;;;;;;5016777;28;20294;-88
2020/12/06 10:26:05;;;;;;;145.95;34.67;;;5.10;99.90;;;;;;5016869;28;20231;-87
2020/12/06 10:28:31;;;;;;;44.90;19.13;;;4.90;99.90;;;;;;5016041;28;20334;-87
2020/12/06 10:30:58;;;;;;;39.53;18.85;;;4.70;99.90;;;;;;4979455;28;20314;-87
2020/12/06 10:33:24;;;;;;;36.53;18.30;;;4.60;99.90;;;;;;5014896;28;20314;-87
2020/12/06 10:35:51;;;;;;;50.15;19.75;;;4.50;99.90;;;;;;5014776;28;20199;-87
2020/12/06 10:38:17;;;;;;;35.95;17.23;;;4.50;99.90;;;;;;5014552;28;20222;-87
2020/12/06 10:40:43;;;;;;;39.67;17.05;;;4.90;99.90;;;;;;5014930;28;20667;-87
2020/12/06 10:43:11;;;;;;;34.85;15.60;;;4.90;99.90;;;;;;5014863;28;20230;-87
2020/12/06 10:45:37;;;;;;;32.42;13.30;;;4.70;99.90;;;;;;5014195;28;20490;-87
2020/12/06 10:48:04;;;;;;;35.05;17.85;;;4.80;99.90;;;;;;5014729;28;20298;-87
2020/12/06 10:50:32;;;;;;;30.15;15.57;;;4.80;99.90;;;;;;5014551;28;20242;-86
2020/12/06 10:52:58;;;;;;;33.47;15.95;;;4.80;99.90;;;;;;5014375;28;20207;-87
2020/12/06 10:55:25;;;;;;;32.92;15.35;;;4.90;99.90;;;;;;5014538;28;20236;-87
2020/12/06 10:57:52;;;;;;;33.38;14.85;;;4.80;99.90;;;;;;5014597;28;20207;-89
2020/12/06 11:00:20;;;;;;;29.55;12.32;;;4.90;99.90;;;;;;5013642;28;20210;-87
2020/12/06 11:02:46;;;;;;;27.98;14.13;;;4.80;99.90;;;;;;5014570;28;20211;-87
2020/12/06 11:05:13;;;;;;;21.98;14.48;;;5.00;99.90;;;;;;5014819;28;20209;-90
2020/12/06 11:07:42;;;;;;;30.38;14.90;;;4.90;99.90;;;;;;5014687;28;20208;-86
2020/12/06 11:10:08;;;;;;;28.90;13.32;;;4.80;99.90;;;;;;5015441;28;20214;-87
2020/12/06 11:12:34;;;;;;;27.77;14.27;;;5.00;99.90;;;;;;5001196;28;20720;-88
2020/12/06 11:15:01;;;;;;;19.67;12.60;;;4.90;99.90;;;;;;5016476;28;20262;-87
2020/12/06 11:17:30;;;;;;;28.13;16.10;;;5.00;99.90;;;;;;5016858;28;20223;-88
2020/12/06 11:19:58;;;;;;;29.80;14.52;;;5.00;99.90;;;;;;5007452;28;20536;-88
2020/12/06 11:22:24;;;;;;;30.98;15.48;;;5.00;99.90;;;;;;4995792;28;20739;-89
2020/12/06 11:24:54;;;;;;;20.20;12.00;;;5.10;99.90;;;;;;4995091;28;20291;-89
2020/12/06 11:27:21;;;;;;;22.50;10.98;;;5.00;99.90;;;;;;4994667;28;20232;-88
2020/12/06 11:29:47;;;;;;;28.48;14.02;;;5.00;99.90;;;;;;4994135;28;20208;-87
2020/12/06 11:32:14;;;;;;;22.05;11.85;;;4.90;99.90;;;;;;4993162;28;20291;-89
2020/12/06 11:34:44;;;;;;;21.13;11.55;;;4.90;99.90;;;;;;4993960;28;20267;-90
2020/12/06 11:37:10;;;;;;;21.42;12.60;;;4.80;99.90;;;;;;4994325;28;20274;-89
2020/12/06 11:39:36;;;;;;;24.25;10.48;;;4.80;99.90;;;;;;5013311;28;20298;-88
2020/12/06 11:42:03;;;;;;;26.50;14.23;;;4.80;99.90;;;;;;5013455;28;20213;-88
2020/12/06 11:44:29;;;;;;;29.45;13.98;;;4.80;99.90;;;;;;5012460;28;20513;-88
2020/12/06 11:46:56;;;;;;;25.42;13.10;;;4.80;99.90;;;;;;5012431;28;20310;-87
2020/12/06 11:49:22;;;;;;;29.70;12.63;;;5.00;99.90;;;;;;5013394;28;20203;-89
2020/12/06 11:51:50;;;;;;;16.15;10.75;;;5.10;99.90;;;;;;5013790;28;20250;-91
2020/12/06 11:54:17;;;;;;;23.30;13.65;;;5.10;99.90;;;;;;5016816;28;20283;-89
2020/12/06 11:56:48;;;;;;;25.67;12.15;;;5.10;99.90;;;;;;5015393;28;20215;-87
2020/12/06 11:59:15;;;;;;;25.25;12.38;;;4.90;99.90;;;;;;5013966;28;20679;-89
2020/12/06 12:01:43;;;;;;;27.60;15.07;;;5.00;99.90;;;;;;5011781;28;20454;-87
2020/12/06 12:04:09;;;;;;;25.90;12.02;;;5.00;99.90;;;;;;5014184;28;20203;-87
2020/12/06 12:06:39;;;;;;;21.60;12.60;;;5.10;99.90;;;;;;5011730;28;20314;-91
2020/12/06 12:09:07;;;;;;;20.17;10.18;;;5.10;99.90;;;;;;5013861;28;20203;-92
2020/12/06 12:14:26;;;;;;;21.80;11.95;;;5.10;99.90;;;;;;5174647;22;20706;-90
2020/12/06 12:16:52;;;;;;;24.85;13.45;;;5.00;99.90;;;;;;4994204;28;20204;-90
2020/12/06 12:19:19;;;;;;;21.35;11.68;;;5.10;99.90;;;;;;4994062;28;20272;-88
2020/12/06 12:21:45;;;;;;;24.08;11.57;;;5.00;99.90;;;;;;4994088;28;20212;-88
2020/12/06 12:24:12;;;;;;;21.70;11.25;;;5.10;99.90;;;;;;4994689;28;20830;-90
2020/12/06 12:26:39;;;;;;;22.30;10.60;;;5.10;99.90;;;;;;4995054;28;20295;-89
2020/12/06 12:29:06;;;;;;;22.02;10.98;;;5.00;99.90;;;;;;4991555;28;20215;-90
2020/12/06 12:31:32;;;;;;;27.77;13.98;;;5.10;99.90;;;;;;4993530;28;20584;-88
2020/12/06 12:33:58;;;;;;;23.33;11.77;;;5.10;99.90;;;;;;4997074;28;20286;-87
2020/12/06 12:36:25;;;;;;;18.13;11.18;;;5.20;99.90;;;;;;4998129;28;20295;-87
2020/12/06 12:38:51;;;;;;;16.92;10.52;;;5.30;99.90;;;;;;4997473;28;20302;-87